Time;durP1;ratioP1;P1;durP2;ratioP2;P2;SDS_P1;SDS_P2;PMS_P1;PMS_P2;Temp;Humidity;BMP_temperature;BMP_pressure;BME280_temperature;BME280_humidity;BME280_pressure;Samples;Min_cycle;Max_cycle;Signal;HPM_P1;HPM_P2
2022/05/01 00:00:56;;;;;;;2.50;0.93;;;;;;;23.88;59.76;102325.66;5054351;28;20049;-67
2022/05/01 00:03:34;;;;;;;3.83;1.05;;;;;;;23.85;59.90;102320.47;5054100;28;20068;-67
2022/05/01 00:06:03;;;;;;;1.25;0.85;;;;;;;23.88;59.95;102320.16;5054313;28;20032;-67
2022/05/01 00:08:29;;;;;;;1.77;0.70;;;;;;;23.86;60.19;102317.59;5055091;28;20021;-67
2022/05/01 00:10:55;;;;;;;1.42;1.08;;;;;;;23.85;59.63;102320.47;5054205;28;20035;-67
2022/05/01 00:13:22;;;;;;;2.10;0.80;;;;;;;23.84;59.99;102318.75;5052798;28;20025;-67
2022/05/01 00:15:47;;;;;;;2.05;1.05;;;;;;;23.87;59.56;102316.56;5057376;28;20013;-66
2022/05/01 00:18:13;;;;;;;1.73;0.90;;;;;;;23.86;59.92;102316.72;5059890;28;20028;-67
2022/05/01 00:20:38;;;;;;;1.80;0.90;;;;;;;23.84;60.10;102313.25;5052611;28;20032;-67
2022/05/01 00:23:03;;;;;;;1.38;0.93;;;;;;;23.86;59.69;102311.22;5053091;28;20027;-67
2022/05/01 00:25:29;;;;;;;1.60;1.00;;;;;;;23.84;60.17;102311.38;5053737;28;20516;-67
2022/05/01 00:27:55;;;;;;;1.65;1.10;;;;;;;23.84;59.27;102311.38;5054195;28;20027;-67
2022/05/01 00:30:20;;;;;;;1.85;1.23;;;;;;;23.82;59.68;102309.84;5052362;28;20024;-67
2022/05/01 00:38:13;;;;;;;1.58;0.90;;;;;;;23.79;59.98;102312.94;5053929;28;20035;-67
2022/05/01 00:40:39;;;;;;;1.48;0.80;;;;;;;23.79;59.29;102318.44;5052266;28;20435;-67
2022/05/01 00:43:04;;;;;;;1.60;0.77;;;;;;;23.79;59.52;102318.44;5053665;28;20021;-67
2022/05/01 00:45:31;;;;;;;1.17;0.90;;;;;;;23.81;60.07;102316.38;5053366;28;20563;-65
2022/05/01 00:47:56;;;;;;;1.70;0.95;;;;;;;23.77;59.74;102318.59;5057084;28;20384;-67
2022/05/01 00:50:21;;;;;;;1.13;0.90;;;;;;;23.77;60.25;102313.13;5053267;28;20519;-67
2022/05/01 00:52:47;;;;;;;1.83;0.80;;;;;;;23.77;59.86;102312.25;5053518;28;20388;-67
2022/05/01 00:55:13;;;;;;;1.55;0.70;;;;;;;23.81;59.70;102316.38;5053260;28;20033;-67
2022/05/01 00:57:39;;;;;;;0.70;0.60;;;;;;;23.78;60.10;102313.97;5053343;28;20369;-68
2022/05/01 01:00:05;;;;;;;1.63;0.90;;;;;;;23.76;60.02;102310.53;5053177;28;20048;-67
2022/05/01 01:02:33;;;;;;;2.15;0.82;;;;;;;23.76;59.31;102311.41;5053092;28;20252;-67
2022/05/01 01:04:59;;;;;;;1.90;0.70;;;;;;;23.78;59.78;102313.97;5053168;28;20029;-67
2022/05/01 01:07:27;;;;;;;1.63;1.05;;;;;;;23.75;60.46;102312.44;5053005;28;20028;-67
2022/05/01 01:09:53;;;;;;;2.47;1.00;;;;;;;23.76;59.50;102311.41;5052130;28;20040;-67
2022/05/01 01:15:10;;;;;;;2.70;0.75;;;;;;;23.74;59.66;102307.13;5053369;28;20036;-69
2022/05/01 01:17:41;;;;;;;2.35;0.95;;;;;;;23.74;59.20;102318.09;5053561;28;20028;-67
2022/05/01 01:20:17;;;;;;;2.13;1.45;;;;;;;23.75;59.90;102319.81;5053983;28;20028;-67
2022/05/01 01:22:44;;;;;;;1.48;0.95;;;;;;;23.70;60.03;102315.69;5054213;28;20021;-67
2022/05/01 01:25:10;;;;;;;2.42;1.08;;;;;;;23.72;60.09;102317.41;5052528;28;20033;-67
2022/05/01 01:27:42;;;;;;;1.55;0.82;;;;;;;23.73;59.33;102316.38;5051447;28;20025;-67
2022/05/01 01:32:52;;;;;;;1.48;0.90;;;;;;;23.70;59.49;102323.94;5053051;28;20158;-67
2022/05/01 01:35:23;;;;;;;2.20;1.10;;;;;;;23.72;59.54;102325.66;5051399;28;20478;-67
2022/05/01 01:37:50;;;;;;;1.58;0.82;;;;;;;23.72;59.87;102325.66;5052656;28;20106;-67
2022/05/01 01:40:24;;;;;;;3.45;1.30;;;;;;;23.70;59.64;102323.94;5052653;28;20151;-67
2022/05/01 01:42:50;;;;;;;2.33;0.85;;;;;;;23.71;59.61;102313.81;5052523;28;20068;-67
2022/05/01 01:45:16;;;;;;;1.92;0.90;;;;;;;23.70;59.91;102318.44;5053575;28;20021;-67
2022/05/01 01:47:43;;;;;;;3.75;1.05;;;;;;;23.69;59.98;102322.22;5052427;28;20021;-67
2022/05/01 01:50:11;;;;;;;1.33;0.90;;;;;;;23.70;60.22;102323.06;5052556;28;20455;-67
2022/05/01 01:52:36;;;;;;;1.05;0.65;;;;;;;23.71;59.71;102319.31;5051092;28;20112;-68
2022/05/01 01:55:02;;;;;;;1.45;0.98;;;;;;;23.69;59.76;102322.22;5052501;28;20112;-67
2022/05/01 01:57:27;;;;;;;3.25;0.80;;;;;;;23.66;60.01;102322.53;5052328;28;20020;-67
2022/05/01 01:59:53;;;;;;;2.53;0.60;;;;;;;23.66;59.74;102322.53;5052126;28;20123;-67
2022/05/01 02:02:18;;;;;;;1.17;0.77;;;;;;;23.67;59.92;102324.25;5055245;28;20221;-67
2022/05/01 02:04:43;;;;;;;1.58;0.90;;;;;;;23.67;59.43;102318.75;5052266;28;20033;-68
2022/05/01 02:07:09;;;;;;;2.75;0.80;;;;;;;23.66;59.39;102322.53;5051159;28;20025;-68
2022/05/01 02:09:37;;;;;;;1.90;0.90;;;;;;;23.67;59.32;102327.00;5052229;28;20464;-67
2022/05/01 02:12:06;;;;;;;0.75;0.60;;;;;;;23.68;60.02;102322.38;5055118;28;20214;-66
2022/05/01 02:14:33;;;;;;;2.45;0.70;;;;;;;23.67;59.16;102329.75;5053262;28;20055;-67
2022/05/01 02:16:58;;;;;;;2.58;0.80;;;;;;;23.66;60.00;102324.44;5051028;28;20028;-67
2022/05/01 02:19:23;;;;;;;1.55;0.70;;;;;;;23.63;59.80;102322.88;5052100;28;20472;-67
2022/05/01 02:21:49;;;;;;;2.22;1.05;;;;;;;23.65;60.15;102331.81;5052244;28;20033;-67
2022/05/01 02:24:14;;;;;;;2.20;0.70;;;;;;;23.65;59.90;102320.81;5052046;28;20025;-67
2022/05/01 02:26:39;;;;;;;1.80;0.75;;;;;;;23.68;59.45;102320.50;5052113;28;20040;-67
2022/05/01 02:29:09;;;;;;;1.08;0.70;;;;;;;23.63;59.95;102317.41;5052266;28;20052;-67
2022/05/01 02:31:39;;;;;;;2.13;0.70;;;;;;;23.67;59.64;102316.00;5052008;28;20025;-67
2022/05/01 02:34:04;;;;;;;2.85;0.88;;;;;;;23.62;59.74;102318.44;5052175;28;20067;-67
2022/05/01 02:36:30;;;;;;;2.38;1.17;;;;;;;23.63;59.43;102317.41;5050906;28;20029;-67
2022/05/01 02:38:55;;;;;;;1.33;0.80;;;;;;;23.62;60.14;102315.69;5055484;28;20079;-65
2022/05/01 02:41:21;;;;;;;1.05;0.50;;;;;;;23.63;59.52;102316.53;5056949;28;20510;-68
2022/05/01 02:43:47;;;;;;;1.90;0.80;;;;;;;23.61;60.09;102311.22;5056295;28;20067;-66
2022/05/01 02:46:15;;;;;;;0.73;0.57;;;;;;;23.62;59.72;102315.69;5059666;28;20507;-67
2022/05/01 02:48:41;;;;;;;2.40;1.10;;;;;;;23.64;59.67;102313.63;5055754;28;20056;-67
2022/05/01 02:51:06;;;;;;;2.65;0.90;;;;;;;23.63;60.08;102317.41;5055739;28;20025;-67
2022/05/01 02:53:32;;;;;;;1.48;0.75;;;;;;;23.61;59.69;102324.94;5055643;28;20392;-67
2022/05/01 02:56:01;;;;;;;1.40;0.77;;;;;;;23.62;59.86;102318.44;5055632;28;20025;-67
2022/05/01 02:58:30;;;;;;;1.83;0.80;;;;;;;23.61;59.83;102319.47;5055435;28;20032;-67
2022/05/01 03:00:56;;;;;;;1.60;0.70;;;;;;;23.60;60.01;102317.75;5054153;28;20047;-67
2022/05/01 03:03:23;;;;;;;3.85;0.93;;;;;;;23.61;59.93;102324.94;5055288;28;20033;-67
2022/05/01 03:05:50;;;;;;;4.50;0.70;;;;;;;23.61;60.51;102319.47;5055440;28;20025;-68
2022/05/01 03:08:15;;;;;;;1.13;0.60;;;;;;;23.61;60.10;102319.47;5055335;28;20468;-67
2022/05/01 03:10:40;;;;;;;2.42;0.70;;;;;;;23.60;60.24;102323.22;5055623;28;20036;-67
2022/05/01 03:13:06;;;;;;;1.65;0.63;;;;;;;23.59;59.91;102316.03;5058701;28;20028;-66
2022/05/01 03:15:31;;;;;;;3.58;1.27;;;;;;;23.59;59.94;102315.16;5055411;28;20029;-67
2022/05/01 03:23:24;;;;;;;1.27;0.75;;;;;;;23.56;60.12;102319.09;5059205;28;20071;-67
2022/05/01 03:25:49;;;;;;;1.55;0.65;;;;;;;23.58;60.35;102322.56;5055021;28;20064;-67
2022/05/01 03:28:15;;;;;;;1.45;0.80;;;;;;;23.59;59.74;102310.53;5055011;28;20017;-67
2022/05/01 03:30:40;;;;;;;2.10;0.90;;;;;;;23.58;59.89;102319.81;5054878;28;20021;-67
2022/05/01 03:33:07;;;;;;;1.20;0.80;;;;;;;23.60;59.50;102317.75;5053808;28;20033;-67
2022/05/01 03:35:35;;;;;;;1.50;0.68;;;;;;;23.58;60.28;102325.28;5054775;28;20021;-67
2022/05/01 03:38:01;;;;;;;1.27;0.52;;;;;;;23.55;59.58;102320.13;5055215;28;20032;-67
2022/05/01 03:40:26;;;;;;;1.17;0.73;;;;;;;23.57;60.21;102323.59;5054651;28;20025;-67
2022/05/01 03:42:51;;;;;;;1.58;0.60;;;;;;;23.60;60.15;102325.97;5055067;28;20043;-67
2022/05/01 03:45:17;;;;;;;1.38;0.90;;;;;;;23.57;59.97;102323.59;5054556;28;20031;-67
2022/05/01 03:47:42;;;;;;;2.58;0.70;;;;;;;23.54;60.32;102326.63;5054389;28;20021;-67
2022/05/01 03:50:07;;;;;;;1.80;0.90;;;;;;;23.56;59.83;102330.06;5054694;28;20033;-67
2022/05/01 03:52:33;;;;;;;1.75;0.70;;;;;;;23.55;60.08;102331.09;5054508;28;20068;-67
2022/05/01 03:54:59;;;;;;;0.57;0.55;;;;;;;23.54;59.81;102332.13;5054581;28;20032;-67
2022/05/01 03:57:24;;;;;;;0.52;0.40;;;;;;;23.55;60.13;102328.34;5054330;28;20060;-67
2022/05/01 03:59:49;;;;;;;2.70;0.80;;;;;;;23.57;60.05;102328.22;5054494;28;20085;-67
2022/05/01 04:02:15;;;;;;;1.40;0.60;;;;;;;23.59;59.21;102332.50;5057222;28;20104;-67
2022/05/01 04:04:42;;;;;;;1.95;0.60;;;;;;;23.66;59.07;102339.00;5052924;28;20116;-67
2022/05/01 04:07:08;;;;;;;0.98;0.40;;;;;;;23.75;59.37;102328.03;5054388;28;20065;-68
2022/05/01 04:09:33;;;;;;;0.75;0.57;;;;;;;23.81;59.42;102336.44;5054165;28;20029;-67
2022/05/01 04:11:58;;;;;;;1.05;0.47;;;;;;;23.84;59.07;102329.75;5054629;28;20052;-66
2022/05/01 04:14:24;;;;;;;0.90;0.55;;;;;;;23.89;59.52;102341.09;5055351;28;20028;-67
2022/05/01 04:16:50;;;;;;;0.70;0.50;;;;;;;23.92;59.61;102340.75;5052845;28;20070;-67
2022/05/01 04:19:15;;;;;;;3.55;0.50;;;;;;;23.91;59.73;102339.03;5052779;28;20048;-67
2022/05/01 04:21:41;;;;;;;1.15;0.30;;;;;;;23.92;59.43;102343.50;5053985;28;20487;-67
2022/05/01 04:24:07;;;;;;;0.73;0.40;;;;;;;23.97;59.38;102346.56;5052926;28;20029;-67
2022/05/01 04:26:32;;;;;;;0.63;0.40;;;;;;;23.96;59.80;102348.47;5052568;28;20029;-67
2022/05/01 04:31:41;;;;;;;0.60;0.52;;;;;;;23.99;59.56;102341.75;5053842;28;20031;-67
2022/05/01 04:34:07;;;;;;;1.45;0.52;;;;;;;24.06;59.83;102340.06;5052572;28;20024;-67
2022/05/01 04:36:33;;;;;;;1.23;0.90;;;;;;;24.03;60.28;102345.91;5055339;28;20480;-65
2022/05/01 04:38:58;;;;;;;0.93;0.45;;;;;;;24.01;60.39;102337.81;5053826;28;20487;-67
2022/05/01 04:41:25;;;;;;;0.80;0.40;;;;;;;24.07;59.92;102343.66;5053738;28;20037;-67
2022/05/01 04:43:50;;;;;;;1.42;0.70;;;;;;;24.04;60.78;102353.09;5053526;28;20016;-67
2022/05/01 04:46:16;;;;;;;2.60;0.40;;;;;;;24.08;60.33;102362.72;5053460;28;20029;-67
2022/05/01 04:48:41;;;;;;;1.15;0.50;;;;;;;24.10;59.85;102360.66;5053458;28;20238;-67
2022/05/01 04:51:06;;;;;;;1.15;0.80;;;;;;;24.08;60.27;102368.19;5052507;28;20090;-67
2022/05/01 04:53:31;;;;;;;0.93;0.45;;;;;;;24.10;60.31;102362.53;5053589;28;20392;-67
2022/05/01 04:57:04;;;;;;;1.00;0.45;;;;;;;24.11;60.32;102365.09;5053438;28;20065;-67
2022/05/01 04:58:42;;;;;;;1.10;0.50;;;;;;;24.12;60.17;102355.81;5053060;28;20024;-67
2022/05/01 05:01:07;;;;;;;1.73;0.50;;;;;;;24.12;60.39;102372.31;5052606;28;20044;-67
2022/05/01 05:03:32;;;;;;;0.98;0.40;;;;;;;24.14;60.13;102375.75;5053149;28;20373;-67
2022/05/01 05:05:58;;;;;;;0.85;0.50;;;;;;;24.14;60.65;102375.75;5053126;28;20028;-67
2022/05/01 05:11:07;;;;;;;0.98;0.38;;;;;;;24.15;60.38;102382.94;5053405;28;20036;-67
2022/05/01 05:13:33;;;;;;;0.40;0.30;;;;;;;24.16;60.93;102390.16;5055322;28;20036;-67
2022/05/01 05:15:59;;;;;;;2.05;0.28;;;;;;;24.18;60.64;102382.59;5053345;28;20021;-67
2022/05/01 05:18:25;;;;;;;1.85;0.68;;;;;;;24.18;61.04;102388.09;5054263;28;20024;-67
2022/05/01 05:20:51;;;;;;;1.27;0.50;;;;;;;24.19;61.00;102387.09;5054306;28;20029;-66
2022/05/01 05:23:17;;;;;;;1.33;0.60;;;;;;;24.21;60.61;102387.78;5053053;28;20043;-67
2022/05/01 05:25:42;;;;;;;0.93;0.40;;;;;;;24.19;60.49;102387.09;5051489;28;20025;-67
2022/05/01 05:28:08;;;;;;;1.45;0.45;;;;;;;24.20;60.40;102380.56;5051514;28;20044;-67
2022/05/01 05:30:34;;;;;;;1.13;0.47;;;;;;;24.18;60.83;102382.59;5052612;28;20028;-67
2022/05/01 05:32:59;;;;;;;1.20;0.80;;;;;;;24.22;61.09;102383.13;5052774;28;20025;-67
2022/05/01 05:35:24;;;;;;;1.13;0.47;;;;;;;24.20;60.34;102382.47;5052520;28;20032;-67
2022/05/01 05:37:50;;;;;;;1.45;0.40;;;;;;;24.23;60.69;102379.34;5052748;28;20025;-67
2022/05/01 05:40:15;;;;;;;0.82;0.40;;;;;;;24.21;60.90;102384.16;5052563;28;20025;-67
2022/05/01 05:42:40;;;;;;;0.85;0.30;;;;;;;24.20;60.66;102386.06;5052619;28;20051;-67
2022/05/01 05:45:06;;;;;;;0.45;0.30;;;;;;;24.20;60.60;102386.06;5053308;28;20025;-66
2022/05/01 05:47:31;;;;;;;0.70;0.25;;;;;;;24.23;60.95;102379.34;5055073;28;20020;-66
2022/05/01 05:49:57;;;;;;;1.05;0.30;;;;;;;24.22;61.30;102381.25;5053054;28;20025;-67
2022/05/01 05:52:22;;;;;;;0.60;0.35;;;;;;;24.22;61.18;102373.00;5052387;28;20025;-67
2022/05/01 05:54:47;;;;;;;0.47;0.25;;;;;;;24.20;61.04;102372.31;5051288;28;20062;-67
2022/05/01 05:57:12;;;;;;;0.70;0.35;;;;;;;24.21;60.36;102365.78;5055196;28;20380;-67
2022/05/01 05:59:38;;;;;;;1.27;0.60;;;;;;;24.25;60.68;102371.78;5052317;28;20094;-67
2022/05/01 06:02:03;;;;;;;0.47;0.32;;;;;;;24.23;60.76;102369.22;5051150;28;20476;-66
2022/05/01 06:04:29;;;;;;;1.05;0.47;;;;;;;24.21;60.99;102376.78;5050841;28;20066;-67
2022/05/01 06:06:55;;;;;;;0.98;0.30;;;;;;;24.25;60.69;102375.41;5051047;28;20050;-67
2022/05/01 06:09:20;;;;;;;0.80;0.47;;;;;;;24.24;60.80;102376.44;5050960;28;20447;-67
2022/05/01 06:11:45;;;;;;;1.20;0.35;;;;;;;24.25;60.71;102372.66;5051717;28;20032;-66
2022/05/01 06:14:10;;;;;;;2.45;0.40;;;;;;;24.24;61.08;102375.56;5056444;28;20033;-67
2022/05/01 06:16:37;;;;;;;1.75;0.30;;;;;;;24.26;61.73;102382.59;5056314;28;20021;-67
2022/05/01 06:19:03;;;;;;;1.75;0.50;;;;;;;24.26;61.37;102379.88;5056425;28;20075;-67
2022/05/01 06:21:28;;;;;;;0.95;0.32;;;;;;;24.26;61.04;102379.88;5056871;28;20032;-67
2022/05/01 06:23:53;;;;;;;0.55;0.40;;;;;;;24.25;61.48;102383.66;5054959;28;20474;-66
2022/05/01 06:26:19;;;;;;;0.55;0.45;;;;;;;24.23;60.87;102385.72;5056107;28;20029;-67
2022/05/01 06:28:44;;;;;;;0.85;0.40;;;;;;;24.25;60.92;102386.38;5054882;28;20025;-66
2022/05/01 06:31:10;;;;;;;1.02;0.50;;;;;;;24.29;61.30;102393.28;5056170;28;20024;-67
2022/05/01 06:33:36;;;;;;;1.10;0.40;;;;;;;24.29;62.23;102390.53;5056304;28;20044;-66
2022/05/01 06:36:03;;;;;;;0.68;0.20;;;;;;;24.29;61.87;102396.03;5054793;28;20460;-67
2022/05/01 06:38:29;;;;;;;0.50;0.28;;;;;;;24.28;61.85;102387.94;5056166;28;20040;-67
2022/05/01 06:40:54;;;;;;;2.20;0.50;;;;;;;24.31;61.50;102376.63;5056291;28;20056;-67
2022/05/01 06:43:20;;;;;;;0.93;0.40;;;;;;;24.32;61.42;102369.22;5055757;28;20060;-67
2022/05/01 06:45:46;;;;;;;1.33;0.22;;;;;;;24.30;62.37;102378.50;5055762;28;20120;-67
2022/05/01 06:48:12;;;;;;;0.77;0.50;;;;;;;24.35;62.39;102385.38;5057205;28;20419;-67
2022/05/01 06:50:38;;;;;;;0.85;0.30;;;;;;;24.35;62.96;102383.47;5055821;28;20029;-67
2022/05/01 06:53:05;;;;;;;2.90;0.40;;;;;;;24.33;63.09;102373.69;5055810;28;20380;-67
2022/05/01 06:55:30;;;;;;;0.82;0.38;;;;;;;24.38;63.41;102379.53;5055563;28;20457;-67
2022/05/01 06:57:56;;;;;;;0.73;0.20;;;;;;;24.39;63.08;102378.50;5055582;28;20040;-67
2022/05/01 07:00:22;;;;;;;0.75;0.30;;;;;;;24.37;63.95;102377.84;5055230;28;20481;-67
2022/05/01 07:02:50;;;;;;;0.85;0.20;;;;;;;24.39;63.56;102381.25;5055543;28;20029;-66
2022/05/01 07:05:15;;;;;;;0.65;0.43;;;;;;;24.38;63.50;102383.16;5055440;28;20062;-67
2022/05/01 07:07:41;;;;;;;0.85;0.50;;;;;;;24.40;63.84;102385.72;5054355;28;20036;-67
2022/05/01 07:10:08;;;;;;;1.33;0.30;;;;;;;24.41;63.67;102376.44;5055452;28;20032;-67
2022/05/01 07:12:33;;;;;;;0.82;0.40;;;;;;;24.39;63.71;102384.00;5054274;28;20564;-66
2022/05/01 07:14:58;;;;;;;1.13;0.28;;;;;;;24.40;64.14;102380.22;5055353;28;20100;-66
2022/05/01 07:17:24;;;;;;;0.63;0.40;;;;;;;24.42;64.36;102376.25;5055918;28;20028;-66
2022/05/01 07:19:49;;;;;;;0.30;0.20;;;;;;;24.42;64.31;102387.25;5058903;28;20021;-66
2022/05/01 07:22:16;;;;;;;1.88;0.50;;;;;;;24.41;64.43;102376.44;5054711;28;20021;-67
2022/05/01 07:24:41;;;;;;;0.85;0.30;;;;;;;24.42;64.12;102378.16;5053563;28;20017;-66
2022/05/01 07:27:07;;;;;;;0.68;0.43;;;;;;;24.41;64.45;102381.94;5055181;28;20032;-66
2022/05/01 07:29:32;;;;;;;0.82;0.20;;;;;;;24.41;63.99;102387.44;5053636;28;20064;-66
2022/05/01 07:31:57;;;;;;;1.25;0.20;;;;;;;24.41;64.58;102387.44;5054986;28;20033;-66
2022/05/01 07:34:23;;;;;;;1.08;0.30;;;;;;;24.43;64.47;102390.88;5054661;28;20399;-67
2022/05/01 07:36:48;;;;;;;0.50;0.40;;;;;;;24.41;64.88;102387.44;5053677;28;20468;-66
2022/05/01 07:39:13;;;;;;;1.67;0.40;;;;;;;24.39;64.52;102387.59;5055195;28;20108;-67
2022/05/01 07:41:39;;;;;;;0.95;0.25;;;;;;;24.42;64.94;102387.25;5054762;28;20029;-67
2022/05/01 07:44:04;;;;;;;0.93;0.20;;;;;;;24.42;64.91;102389.16;5054812;28;20025;-67
2022/05/01 07:46:29;;;;;;;0.20;0.20;;;;;;;24.41;64.47;102387.44;5054597;28;20025;-67
2022/05/01 07:48:55;;;;;;;0.50;0.20;;;;;;;24.43;64.73;102385.38;5054782;28;20017;-67
2022/05/01 07:51:20;;;;;;;1.92;0.63;;;;;;;24.38;64.84;102396.88;5054500;28;20025;-67
2022/05/01 07:53:45;;;;;;;0.20;0.20;;;;;;;24.42;64.19;102389.16;5054726;28;20035;-67
2022/05/01 07:56:11;;;;;;;1.45;0.30;;;;;;;24.42;64.63;102386.41;5057222;28;20412;-67
2022/05/01 07:58:36;;;;;;;0.75;0.28;;;;;;;24.44;64.56;102392.56;5054384;28;20111;-67
2022/05/01 08:01:03;;;;;;;1.23;0.55;;;;;;;24.44;64.81;102392.56;5054356;28;20044;-67
2022/05/01 08:06:14;;;;;;;0.55;0.17;;;;;;;24.41;64.48;102390.19;5054310;28;20044;-67
2022/05/01 08:08:40;;;;;;;0.77;0.40;;;;;;;24.43;64.94;102382.63;5054263;28;20029;-67
2022/05/01 08:11:05;;;;;;;1.17;0.30;;;;;;;24.43;64.84;102391.72;5054266;28;20020;-67
2022/05/01 08:13:31;;;;;;;1.88;0.38;;;;;;;24.44;64.64;102395.31;5054127;28;20025;-67
2022/05/01 08:15:56;;;;;;;0.28;0.20;;;;;;;24.42;64.60;102378.16;5052933;28;20032;-67
2022/05/01 08:21:07;;;;;;;0.30;0.20;;;;;;;24.43;64.84;102385.38;5054188;28;20040;-66
2022/05/01 08:23:33;;;;;;;0.90;0.32;;;;;;;24.45;64.59;102386.03;5055144;28;20029;-66
2022/05/01 08:26:05;;;;;;;0.85;0.30;;;;;;;24.45;64.95;102389.66;5055733;28;20052;-67
2022/05/01 08:28:31;;;;;;;1.08;0.30;;;;;;;24.45;64.70;102395.16;5053834;28;20046;-67
2022/05/01 08:30:56;;;;;;;0.10;0.10;;;;;;;24.44;65.24;102385.19;5053954;28;20036;-67
2022/05/01 08:33:21;;;;;;;1.02;0.10;;;;;;;24.46;65.22;102387.75;5053633;28;20029;-67
2022/05/01 08:35:47;;;;;;;0.68;0.20;;;;;;;24.44;64.57;102387.06;5051601;28;20052;-67
2022/05/01 08:38:12;;;;;;;0.38;0.32;;;;;;;24.47;65.13;102381.22;5058574;28;20376;-67
2022/05/01 08:40:38;;;;;;;0.25;0.10;;;;;;;24.47;65.48;102386.72;5054220;28;20099;-67
2022/05/01 08:43:03;;;;;;;0.70;0.20;;;;;;;24.47;64.43;102386.72;5052428;28;20035;-67
2022/05/01 08:45:52;;;;;;;2.10;0.43;;;;;;;24.48;64.82;102402.19;5053375;28;20468;-67
2022/05/01 08:49:00;;;;;;;0.50;0.30;;;;;;;24.44;64.60;102395.31;5053419;28;20025;-67
2022/05/01 08:51:29;;;;;;;0.52;0.10;;;;;;;24.44;64.92;102392.56;5053353;28;20063;-67
2022/05/01 08:53:56;;;;;;;1.50;0.30;;;;;;;24.47;64.73;102393.06;5052642;28;20064;-67
2022/05/01 08:56:21;;;;;;;1.15;0.32;;;;;;;24.49;65.28;102385.50;5051880;28;20376;-67
2022/05/01 08:58:47;;;;;;;0.40;0.25;;;;;;;24.46;64.31;102388.63;5052043;28;20020;-67
2022/05/01 09:01:13;;;;;;;0.30;0.20;;;;;;;24.47;64.60;102382.09;5053127;28;20067;-67
2022/05/01 09:03:41;;;;;;;1.30;0.30;;;;;;;24.46;64.92;102387.75;5053154;28;20170;-67
2022/05/01 09:06:06;;;;;;;0.57;0.20;;;;;;;24.49;64.74;102381.91;5053169;28;20120;-67
2022/05/01 09:08:32;;;;;;;1.05;0.47;;;;;;;24.52;64.49;102384.28;5053366;28;20096;-67
2022/05/01 09:12:49;;;;;;;1.02;0.35;;;;;;;24.48;64.72;102383.78;5053125;28;20028;-67
2022/05/01 09:13:43;;;;;;;1.65;0.30;;;;;;;24.50;64.34;102375.38;5053706;28;20029;-67
2022/05/01 09:16:12;;;;;;;0.88;0.38;;;;;;;24.49;65.17;102379.16;5053026;28;20025;-67
2022/05/01 09:18:45;;;;;;;0.47;0.22;;;;;;;24.47;65.60;102375.72;5052963;28;20133;-68
2022/05/01 09:21:11;;;;;;;1.55;0.40;;;;;;;24.50;65.15;102380.88;5054024;28;20090;-67
2022/05/01 09:23:37;;;;;;;1.13;0.20;;;;;;;24.49;64.96;102379.16;5054492;28;20472;-67
2022/05/01 09:26:03;;;;;;;0.60;0.20;;;;;;;24.49;65.33;102371.75;5051601;28;20021;-67
2022/05/01 09:28:29;;;;;;;0.75;0.28;;;;;;;24.50;65.01;102375.38;5052756;28;20021;-67
2022/05/01 09:30:54;;;;;;;1.08;0.65;;;;;;;24.53;65.04;102375.91;5052805;28;20027;-67
2022/05/01 09:33:20;;;;;;;0.35;0.22;;;;;;;24.51;64.96;102377.09;5052653;28;20029;-67
2022/05/01 09:35:45;;;;;;;1.02;0.30;;;;;;;24.49;65.29;102366.25;5052762;28;20025;-67
2022/05/01 09:38:13;;;;;;;0.77;0.35;;;;;;;24.55;65.58;102361.97;5052697;28;20024;-67
2022/05/01 09:40:39;;;;;;;0.68;0.20;;;;;;;24.50;64.79;102370.72;5051338;28;20488;-67
2022/05/01 09:43:04;;;;;;;0.98;0.20;;;;;;;24.51;64.63;102369.69;5052699;28;20025;-67
2022/05/01 09:45:33;;;;;;;0.40;0.20;;;;;;;24.53;65.32;102369.53;5052231;28;20032;-67
2022/05/01 09:47:59;;;;;;;0.43;0.20;;;;;;;24.51;65.03;102364.19;5052570;28;20025;-67
2022/05/01 09:50:43;;;;;;;0.55;0.28;;;;;;;24.56;65.54;102363.69;5052038;28;20116;-65
2022/05/01 09:53:09;;;;;;;0.70;0.20;;;;;;;24.54;65.29;102354.75;5056089;28;20535;-67
2022/05/01 09:55:35;;;;;;;0.35;0.15;;;;;;;24.56;65.49;102355.44;5054572;28;20112;-67
2022/05/01 09:58:06;;;;;;;0.65;0.15;;;;;;;24.53;65.09;102358.56;5052535;28;20492;-67
2022/05/01 10:00:46;;;;;;;0.43;0.30;;;;;;;24.54;64.85;102354.75;5050949;28;20519;-67
2022/05/01 10:03:28;;;;;;;0.13;0.10;;;;;;;24.52;64.99;102346.69;5052404;28;20043;-67
2022/05/01 10:05:55;;;;;;;0.93;0.30;;;;;;;24.54;65.22;102343.75;5052370;28;20033;-67
2022/05/01 10:08:21;;;;;;;0.88;0.20;;;;;;;24.53;65.57;102331.91;5050961;28;20017;-67
2022/05/01 10:10:49;;;;;;;0.50;0.10;;;;;;;24.55;65.28;102342.72;5052403;28;20483;-67
2022/05/01 10:13:15;;;;;;;0.70;0.20;;;;;;;24.53;65.52;102342.06;5052322;28;20055;-67
2022/05/01 10:15:41;;;;;;;0.70;0.30;;;;;;;24.54;64.97;102344.63;5052267;28;20025;-67
2022/05/01 10:18:07;;;;;;;0.45;0.20;;;;;;;24.54;65.19;102341.00;5052348;28;20021;-67
2022/05/01 10:20:34;;;;;;;0.55;0.13;;;;;;;24.51;65.20;102344.09;5053058;28;20028;-67
2022/05/01 10:23:02;;;;;;;1.23;0.22;;;;;;;24.55;64.61;102339.97;5052267;28;20036;-67
2022/05/01 10:25:31;;;;;;;0.20;0.10;;;;;;;24.55;65.54;102345.47;5050708;28;20025;-67
2022/05/01 10:28:10;;;;;;;1.13;0.20;;;;;;;24.54;65.06;102339.13;5050993;28;20123;-67
2022/05/01 10:33:52;;;;;;;0.22;0.20;;;;;;;24.58;64.99;102334.13;5052314;28;20040;-67
2022/05/01 10:36:29;;;;;;;0.60;0.20;;;;;;;24.54;65.12;102332.78;5051989;28;20013;-67
2022/05/01 10:39:09;;;;;;;0.38;0.22;;;;;;;24.53;65.31;102350.31;5056307;28;20025;-67
2022/05/01 10:41:41;;;;;;;0.50;0.10;;;;;;;24.55;65.00;102334.47;5051914;28;20021;-67
2022/05/01 10:44:06;;;;;;;0.35;0.20;;;;;;;24.56;65.50;102341.69;5052023;28;20087;-67
2022/05/01 10:46:32;;;;;;;0.45;0.10;;;;;;;24.54;64.95;102344.63;5051828;28;20457;-67
2022/05/01 10:49:02;;;;;;;1.20;0.20;;;;;;;24.55;64.67;102345.47;5052096;28;20025;-66
2022/05/01 10:51:29;;;;;;;0.85;0.20;;;;;;;24.56;64.96;102348.03;5053818;28;20021;-66
2022/05/01 10:54:10;;;;;;;0.47;0.17;;;;;;;24.55;64.78;102339.97;5051985;28;20028;-67
2022/05/01 10:56:37;;;;;;;0.93;0.40;;;;;;;24.58;65.62;102345.13;5050509;28;20021;-67
2022/05/01 10:59:42;;;;;;;0.43;0.10;;;;;;;24.56;65.07;102328.81;5054620;28;20479;-67
2022/05/01 11:02:22;;;;;;;0.30;0.20;;;;;;;24.56;64.93;102326.06;5055552;28;20037;-67
2022/05/01 11:04:47;;;;;;;1.00;0.30;;;;;;;24.58;64.99;102329.47;5055478;28;20021;-67
2022/05/01 11:07:14;;;;;;;0.50;0.20;;;;;;;24.55;65.06;102323.47;5055472;28;20357;-67
2022/05/01 11:09:42;;;;;;;1.48;0.20;;;;;;;24.55;65.09;102318.84;5055351;28;20032;-67
2022/05/01 11:12:09;;;;;;;1.20;0.30;;;;;;;24.57;64.71;102326.91;5055482;28;20040;-67
2022/05/01 11:14:54;;;;;;;0.60;0.25;;;;;;;24.56;64.89;102314.19;5055463;28;20475;-67
2022/05/01 11:17:36;;;;;;;0.32;0.30;;;;;;;24.57;65.35;102318.66;5055128;28;20472;-67
2022/05/01 11:20:08;;;;;;;0.28;0.20;;;;;;;24.55;65.37;102317.97;5058609;28;20029;-66
2022/05/01 11:22:35;;;;;;;1.35;0.30;;;;;;;24.56;65.27;102319.69;5055113;28;20255;-67
2022/05/01 11:25:00;;;;;;;0.73;0.20;;;;;;;24.58;65.86;102315.72;5055150;28;20057;-67
2022/05/01 11:27:26;;;;;;;0.70;0.35;;;;;;;24.57;65.29;102315.91;5055168;28;20067;-66
2022/05/01 11:30:07;;;;;;;0.30;0.30;;;;;;;24.57;64.90;102315.91;5055167;28;20021;-67
2022/05/01 11:32:58;;;;;;;1.05;0.35;;;;;;;24.57;65.00;102311.28;5054945;28;20112;-67
2022/05/01 11:35:58;;;;;;;1.30;0.30;;;;;;;24.56;65.49;102325.19;5054748;28;20031;-67
2022/05/01 11:38:49;;;;;;;0.55;0.20;;;;;;;24.59;65.22;102319.34;5053503;28;20031;-67
2022/05/01 11:41:15;;;;;;;0.45;0.43;;;;;;;24.58;64.78;102312.97;5053522;28;20112;-67
2022/05/01 11:43:40;;;;;;;0.80;0.20;;;;;;;24.59;64.95;102319.34;5054824;28;20460;-67
2022/05/01 11:46:17;;;;;;;0.15;0.15;;;;;;;24.57;64.89;102307.66;5054771;28;20056;-67
2022/05/01 11:48:42;;;;;;;0.50;0.30;;;;;;;24.57;65.04;102293.91;5057932;28;20029;-67
2022/05/01 11:51:08;;;;;;;0.93;0.20;;;;;;;24.55;64.80;102302.34;5054778;28;20036;-67
2022/05/01 11:53:34;;;;;;;0.73;0.30;;;;;;;24.58;64.63;102290.13;5057714;28;20037;-67
2022/05/01 12:04:32;;;;;;;0.50;0.20;;;;;;;24.59;65.15;102313.84;5054366;28;20032;-67